x

Cape Edgecumbe - 25nm Ssw Of Cape Edgecumbe, Ak (46084) Wave Buoy

2:50am - Sat 25th Oct 2014 All times are AKDT. -8 hours from GMT.

  • Sig Wave height 6.6ft
  • Peak Period 8s
  • Average Period 5s
  • Wind
    20mph, 22mph gusts
  • Sea Temp 54°f
  • Air Temp 51°f
  • Sea Pressure 1007.5mb
  • Cape Edgecumbe - 25nm Ssw Of Cape Edgecumbe, Ak
  • Cape Edgecumbe - 25nm Ssw Of Cape Edgecumbe, Ak

More Historic Weather Station data

Upgrade to MSW Pro to gain access to the past 30 days of data for over 8000 Wavebouys and Weather Stations around the globe.

Join Pro

Comparision Forecast

View Surf forecast
   
Sat 10/25 2:50am 6.5ft 8s 5s 20 22 mph 1007.5mb 54f 51f
1:50am 7ft 8s 6s 20 25 mph 1007.7mb 54f 51f
12:50am 7ft 8s 6s 20 25 mph 1008.1mb 55f 51f
Fri 10/24 11:50pm 7ft 8s 6s 20 25 mph 1008.5mb 55f 51f
10:50pm 7ft 8s 6s 20 25 mph 1008.6mb 54f 52f
9:50pm 7.5ft 9s 6s 2 7 mph 1009mb 54f 49f
8:50pm 8ft 8s 6s 9 11 mph 1009.2mb 54f 48f
7:50pm 10ft 9s 7s 16 20 mph 1009.1mb 54f 49f
6:50pm 8.5ft 10s 7s 7 11 mph 1009mb 54f 48f
5:50pm 9ft 8s 7s 4 7 mph 1009.1mb 54f 47f
4:50pm 8.5ft 10s 7s 9 16 mph 1008.9mb 54f 49f
3:50pm 9ft 11s 7s 11 13 mph 1008.9mb 54f 48f
2:50pm 9ft 11s 7s 13 18 mph 1008.9mb 54f 48f
1:50pm 8.5ft 10s 7s 16 20 mph 1009mb 54f 48f
12:50pm 6ft 11s 6s 18 20 mph 1008.9mb 54f 48f
11:50am 6ft 11s 5s 18 20 mph 1009.2mb 54f 47f
10:50am 6ft 11s 6s 18 22 mph 1009.2mb 54f 49f
9:50am 6.5ft 11s 6s 18 20 mph 1008.9mb 54f 50f
8:50am 6ft 10s 6s 16 20 mph 1008.7mb 54f 51f
7:50am 6.5ft 11s 6s 16 20 mph 1008.4mb 54f 51f
6:50am 6ft 11s 6s 16 20 mph 1008.3mb 54f 51f
5:50am 6ft 11s 6s 16 20 mph 1008.2mb 54f 51f
4:50am 5.5ft 11s 6s 13 16 mph 1007.9mb 54f 51f
3:50am 5ft 10s 6s 13 18 mph 1007.7mb 54f 50f
2:50am 6ft 11s 6s 16 18 mph 1007.5mb 54f 51f
1:50am 5.5ft 11s 6s 16 18 mph 1007.3mb 55f 51f
12:50am 6ft 11s 6s 13 18 mph 1007.2mb 55f 51f
Thu 10/23 11:50pm 6ft 12s 6s 9 11 mph 1007.1mb 55f 49f
10:50pm 6ft 11s 6s 11 16 mph 1006.8mb 54f 49f
9:50pm 6ft 11s 6s 13 16 mph 1006.2mb 54f 51f
8:50pm 7ft 8s 7s 13 16 mph 1005.6mb 54f 51f
7:50pm 7.5ft 8s 6s 13 16 mph 1005mb 54f 50f
6:50pm 7.5ft 9s 6s 16 18 mph 1004.6mb 54f 50f
5:50pm 8ft 9s 6s 18 22 mph 1003.8mb 54f 50f
4:50pm 8ft 8s 6s 20 25 mph 1003.2mb 54f 50f
3:50pm 8ft 8s 6s 18 22 mph 1002.6mb 54f 49f
2:50pm 8ft 7s 6s 22 25 mph 1001.9mb 54f 50f
1:50pm 8ft 7s 5s 25 29 mph 1001.2mb 54f 49f
12:50pm 7ft 7s 5s 20 22 mph 1000.5mb 54f 51f
11:50am 6.5ft 11s 5s 20 25 mph 999.5mb 54f 51f
10:50am 6ft 11s 5s 25 29 mph 998.8mb 54f 50f
9:50am 6ft 11s 5s 22 29 mph 998mb 54f 51f
8:50am 6ft 11s 5s 20 25 mph 997.1mb 54f 51f
7:50am 6ft 10s 6s 13 16 mph 996.5mb 54f 49f
6:50am 7ft 9s 6s 18 20 mph 996mb 54f 49f
5:50am 7ft 10s 6s 20 25 mph 995mb 54f 50f
4:50am 7ft 11s 6s 20 25 mph 994.2mb 54f 50f
3:50am 6.5ft 10s 6s 18 22 mph 993.7mb 54f 51f
2:50am 7ft 10s 6s 13 18 mph 993.3mb 54f 52f
1:50am 7ft 11s 6s 18 22 mph 992.9mb 54f 52f
12:50am 8ft 8s 7s 20 22 mph 992.7mb 54f 51f
Wed 10/22 11:50pm 8ft 11s 7s 18 20 mph 992.6mb 54f 52f
10:50pm 9ft 11s 7s 18 22 mph 992.9mb 54f 52f
9:50pm 9ft 11s 7s 18 22 mph 993.3mb 54f 52f
8:50pm 10ft 11s 7s 13 16 mph 993.8mb 54f 52f
7:50pm 9.5ft 11s 7s 13 18 mph 994.1mb 54f 51f
6:50pm 10ft 11s 7s 16 20 mph 994.3mb 54f 52f
5:50pm 9.5ft 11s 7s 18 22 mph 994.3mb 54f 51f
4:50pm 11ft 11s 8s 16 22 mph 994.1mb 54f 52f
3:50pm 10ft 11s 7s 13 18 mph 994.2mb 54f 52f
2:50pm 11ft 11s 7s 13 16 mph 994mb 54f 52f
1:50pm 12ft 11s 7s 16 20 mph 993.5mb 54f 52f
12:50pm 13ft 8s 7s 20 25 mph 993.1mb 54f 52f
11:50am 13ft 9s 7s 25 31 mph 992.2mb 54f 51f
10:50am 12.5ft 9s 6s 29 34 mph 990.9mb 54f 51f
9:50am 13.5ft 11s 7s 29 36 mph 989.3mb 54f 52f
8:50am 12ft 11s 6s 34 40 mph 987.6mb 54f 52f
7:50am 12.5ft 11s 7s 34 40 mph 986mb 54f 52f
6:50am 12ft 11s 7s 25 31 mph 984.5mb 54f 51f
5:50am 12ft 11s 7s 29 34 mph 983mb 54f 52f
4:50am 13.5ft 10s 7s 34 38 mph 981.4mb 54f 53f
3:50am 15ft 11s 7s 22 29 mph 981mb 54f 51f
2:50am 16ft 9s 7s 36 49 mph 979.9mb 54f 49f
1:50am 17.5ft 10s 7s 43 51 mph 979.5mb 55f 49f
12:50am 17.5ft 12s 7s 43 58 mph 979.6mb 55f 49f
Tue 10/21 11:50pm 18.5ft 11s 7s 40 49 mph 979.7mb 55f 51f
10:50pm 17.5ft 10s 7s 43 56 mph 979.7mb 55f 50f
9:50pm 17.5ft 10s 7s 45 54 mph 979.7mb 55f 50f
8:50pm 16.5ft 9s 7s 47 58 mph 978.7mb 54f 51f
7:50pm 15ft 10s 7s 43 54 mph 979mb 54f 51f
6:50pm 16ft 9s 7s 45 56 mph 978.9mb 54f 51f
5:50pm 14ft 10s 7s 40 49 mph 979.3mb 54f 52f
4:50pm 12ft 8s 6s 36 43 mph 979.1mb 54f 53f
3:50pm 11.5ft 10s 6s 34 40 mph 979.9mb 54f 53f
2:50pm 12ft 8s 6s 29 38 mph 980.6mb 54f 52f
1:50pm 11.5ft 9s 6s 29 36 mph 981.3mb 54f 53f
12:50pm 11ft 8s 6s 29 34 mph 982mb 54f 53f